Tiempo atmosférico en la estación meteorológica de Carmona, Sevilla (50 m.)



Fecha
DESCASC
Temp. máxima en grados centígrados (hora)
DESCASC
Temp. mínima en grados centígrados (hora)
DESCASC
Temp. media en grados centígrados
DESCASC
Racha de viento máxima en m/sg (hora)
DESCASC
Velocidad máxima media en intervalos de 10 minutos(hora)
DESCASC
Precipitaciones diarias en mm
DESCASC
Precipitaciones de 00:00 a 06:00 en mm
DESCASC
Precipitaciones de 06:00 a 12:00 en mm
DESCASC
Precipitaciones de 12:00 a 18:00 en mm
DESCASC
Precipitaciones de 18:00 a 24:00 en mm
DESCASC
18-10-2018 18.6 (00:00) 12.8 (08:50) 15.7 13.06 (08:40) 7.78 (08:40) 28.8 0 26.8 0.8 1.2
17-10-2018 26 (17:30) 13.2 (08:30) 19.6 6.11 (20:10) 3.33 (21:00) 0 0 0 0 0
16-10-2018 23.8 (16:50) 14.9 (08:20) 19.3 4.17 (08:50) 2.78 (08:50) 2 2 0 0 0
15-10-2018 19.9 (15:50) 9.7 (08:00) 14.8 12.5 (16:10) 7.78 (16:10) 11.2 0 0 2.4 8.8
14-10-2018 22 (17:30) 13.5 (00:00) 17.8 12.78 (04:40) 7.22 (04:30) 8.2 2.4 5.8 0 0
13-10-2018 32 (15:50) 16.3 (00:00) 24.1 7.78 (18:30) 5.28 (18:40) 0 0 0 0 0
12-10-2018 28.9 (16:40) 19.7 (00:00) 24.3 6.11 (18:30) 3.61 (01:00) 0.2 0.2 0 0 0
11-10-2018 26.2 (15:30) 19.9 (05:50) 23.1 11.11 (17:00) 6.94 (17:00) 0.4 0 0.4 0 0
10-10-2018 26.9 (16:20) 17.8 (00:00) 22.3 9.17 (17:10) 5.28 (19:00) 0 0 0 0 0
09-10-2018 27.7 (17:30) 12.4 (08:10) 20.1 7.5 (16:20) 4.17 (21:50) 0 0 0 0 0
08-10-2018 28.3 (17:00) 12.3 (08:40) 20.3 8.33 (10:50) 5.83 (11:00) 0 0 0 0 0
07-10-2018 31.6 (17:00) 17.1 (04:20) 24.4 10 (18:10) 6.39 (18:00) 0 0 0 0 0
06-10-2018 32.1 (16:50) 13.9 (08:20) 23 8.33 (11:10) 5.28 (11:10) 0 0 0 0 0
05-10-2018 32.9 (16:30) 14.2 (08:20) 23.6 8.33 (13:50) 5 (12:50) 0 0 0 0 0
04-10-2018 33.3 (18:30) 14.7 (00:00) 24 6.39 (11:20) 4.17 (11:20) 0 0 0 0 0
03-10-2018 32 (17:30) 12.7 (00:00) 22.3 8.61 (10:50) 5.56 (11:20) 0 0 0 0 0
02-10-2018 34.4 (17:40) 16.3 (00:00) 25.4 10.28 (12:00) 7.22 (12:20) 0 0 0 0 0
01-10-2018 33.7 (16:50) 17.2 (00:00) 25.5 8.06 (18:00) 4.72 (19:20) 0 0 0 0 0
30-09-2018 32.6 (16:50) 18.5 (00:00) 25.5 9.17 (19:50) 5.56 (20:00) 0 0 0 0 0
29-09-2018 32.3 (16:50) 17.7 (00:00) 25 6.11 (18:20) 3.89 (10:30) 0 0 0 0 0
28-09-2018 31.7 (17:50) 18.7 (00:00) 25.2 7.78 (12:30) 5 (12:30) 0 0 0 0 0
27-09-2018 32.1 (17:20) 20.4 (00:00) 26.2 7.5 (11:00) 5 (11:00) 0 0 0 0 0
26-09-2018 33.7 (16:40) 21.8 (00:00) 27.8 14.44 (20:40) 8.33 (20:50) 0 0 0 0 0
25-09-2018 36.6 (17:30) 18.5 (00:00) 27.5 6.39 (17:40) 4.17 (11:20) 0 0 0 0 0
24-09-2018 37.8 (17:10) 19.1 (00:00) 28.4 6.39 (11:20) 4.44 (11:10) 0 0 0 0 0
23-09-2018 37.3 (17:10) 19.2 (08:20) 28.3 6.94 (11:50) 4.72 (10:30) 0 0 0 0 0
22-09-2018 37.5 (17:20) 18.9 (08:10) 28.2 7.22 (11:20) 5 (11:10) 0 0 0 0 0
21-09-2018 35.1 (17:50) 19.7 (08:00) 27.4 5 (17:10) 3.06 (01:10) 0 0 0 0 0
20-09-2018 34.4 (18:00) 20.8 (07:50) 27.6 6.94 (17:10) 4.44 (19:20) 0 0 0 0 0

Gráficas

Temp. máximas Temp. mínimas Temp. medias Precipitaciones Rachas de viento máximas Velocidades máximas media en intervalos de 10 minutos

Datos horarios

Fecha y hora oficial Temperatura (ºC) Velocidad del viento (km/h) Dirección del viento Racha (km/h) Dirección de racha Precipitación (mm) Presión (hPa) Tendencia (hPa) Humedad (%)
2018-10-19 23:00:00 14.9 5 Sudeste 12 Sudeste 0 -- -- 81
2018-10-19 22:00:00 15.4 9 Este 11 Este 0 -- -- 78
2018-10-19 21:00:00 16.9 10 Sudeste 14 Sudeste 0 -- -- 69
2018-10-19 20:00:00 18.3 10 Sudeste 22 Sudeste 0 -- -- 64
2018-10-19 19:00:00 21.1 14 Sudeste 21 Sudeste 0 -- -- 53
2018-10-19 18:00:00 21.8 12 Este 26 Este 0 -- -- 48
2018-10-19 17:00:00 21.9 12 Este 24 Este 0 -- -- 50
2018-10-19 16:00:00 21.6 10 Este 22 Este 0 -- -- 53
2018-10-19 15:00:00 20.8 12 Este 24 Este 0.2 -- -- 59
2018-10-19 14:00:00 19.7 16 Este 27 Este 0 -- -- 62
2018-10-19 13:00:00 18.3 18 Este 26 Este 0 -- -- 72
2018-10-19 12:00:00 16.9 13 Este 30 Este 0 -- -- 78
2018-10-19 11:00:00 15.3 17 Este 27 Este 0 -- -- 82
2018-10-19 10:00:00 13.8 10 Este 17 Este 0 -- -- 93
2018-10-19 09:00:00 12.1 6 Nordeste 11 Nordeste 0 -- -- 93
2018-10-19 08:00:00 12.2 4 Nordeste 9 Este 0 -- -- 92
2018-10-19 07:00:00 12.5 6 Este 8 Este 0 -- -- 92
2018-10-19 06:00:00 12.6 5 Nordeste 8 Nordeste 0 -- -- 92
2018-10-19 05:00:00 12.9 5 Nordeste 12 Este 0.2 -- -- 92
2018-10-19 04:00:00 13 4 Nordeste 10 Nordeste 0.2 -- -- 92
2018-10-19 03:00:00 12.8 4 Nordeste 6 Nordeste 0 -- -- 91
2018-10-19 02:00:00 13 3 Este 8 Este 0 -- -- 91
2018-10-19 01:00:00 13.2 4 Este 10 Nordeste 0 -- -- 90
2018-10-19 00:00:00 13.4 6 Nordeste 15 Este 0.2 -- -- 89
2018-10-18 23:00:00 13.2 9 Nordeste 17 Este 0.2 -- -- 89
2018-10-18 22:00:00 13.4 9 Nordeste 18 Nordeste 0.6 -- -- 88
2018-10-18 21:00:00 13.9 10 Este 20 Este 0 -- -- 85
2018-10-18 20:00:00 14.1 8 Este 16 Este 0 -- -- 87
2018-10-18 19:00:00 14.4 11 Este 21 Este 0.2 -- -- 85
2018-10-18 18:00:00 14.7 13 Este 23 Este 0.2 -- -- 83
2018-10-18 17:00:00 15.1 13 Este 28 Este 0 -- -- 82
2018-10-18 16:00:00 15.1 14 Este 25 Este 0 -- -- 85
2018-10-18 15:00:00 15.2 15 Este 23 Este 0.4 -- -- 85
2018-10-18 14:00:00 15 11 Sudeste 23 Sudeste 0.2 -- -- 86
2018-10-18 13:00:00 15.5 12 Sudeste 18 Sudeste 0 -- -- 81
2018-10-18 12:00:00 14.6 5 Nordeste 14 Norte 0 -- -- 90
2018-10-18 11:00:00 13.9 8 Norte 24 Noroeste 1.8 -- -- 92
2018-10-18 10:00:00 12.8 14 Noroeste 31 Oeste 3.4 -- -- 92
2018-10-18 09:00:00 12.8 25 Noroeste 47 Oeste 7.8 -- -- 92
2018-10-18 08:00:00 16.2 11 Sur 27 Sudeste 13.8 -- -- 89
2018-10-18 07:00:00 17 8 Este 10 Este 0 -- -- 91
2018-10-18 06:00:00 16.6 6 Nordeste 8 Este 0 -- -- 91
2018-10-18 05:00:00 16.6 4 Nordeste 9 Nordeste 0 -- -- 90
2018-10-18 04:00:00 16.8 4 Nordeste 7 Nordeste 0 -- -- 89
2018-10-18 03:00:00 17.2 3 Noroeste 8 Sudoeste 0 -- -- 87
2018-10-18 02:00:00 17.9 5 Sudoeste 15 Sur 0 -- -- 84
2018-10-18 01:00:00 18.2 7 Sudoeste 17 Sudoeste 0 -- -- 81
2018-10-18 00:00:00 18.6 8 Sudoeste 17 Sudoeste 0 -- -- 77
2018-10-17 23:00:00 18.8 9 Sudoeste 17 Sudoeste 0 -- -- 74
2018-10-17 22:00:00 19.5 10 Sudoeste 19 Sudoeste 0 -- -- 71
2018-10-17 21:00:00 20.8 12 Sudoeste 22 Sudoeste 0 -- -- 66
2018-10-17 20:00:00 22.5 6 Sudoeste 9 Oeste 0 -- -- 54
2018-10-17 19:00:00 24.9 6 Sudoeste 13 Sudoeste 0 -- -- 43
2018-10-17 18:00:00 25.6 9 Oeste 13 Oeste 0 -- -- 39
2018-10-17 17:00:00 25.7 5 Oeste 15 Oeste 0 -- -- 43
2018-10-17 16:00:00 25.5 3 Sudoeste 9 Oeste 0 -- -- 44
2018-10-17 15:00:00 24.3 4 Sudeste 9 Sudeste 0 -- -- 51
2018-10-17 14:00:00 22.7 6 Sudeste 14 Sudeste 0 -- -- 55
2018-10-17 13:00:00 21.4 9 Este 15 Este 0 -- -- 62
2018-10-17 12:00:00 19.7 8 Este 15 Este 0 -- -- 71
2018-10-17 11:00:00 17.4 10 Este 14 Este 0 -- -- 79
2018-10-17 10:00:00 15.5 6 Nordeste 11 Nordeste 0 -- -- 91
2018-10-17 09:00:00 13.3 5 Este 9 Este 0 -- -- 92
2018-10-17 08:00:00 13.4 6 Este 15 Este 0 -- -- 91
2018-10-17 07:00:00 13.5 9 Este 12 Este 0 -- -- 91
2018-10-17 06:00:00 13.5 5 Este 8 Nordeste 0 -- -- 89
2018-10-17 05:00:00 13.8 8 Nordeste 9 Nordeste 0 -- -- 88
2018-10-17 04:00:00 14.3 4 Nordeste 6 Norte 0 -- -- 88
2018-10-17 03:00:00 14.7 0 Calma 6 Nordeste 0 -- -- 86
2018-10-17 02:00:00 15.3 3 Nordeste 6 Este 0 -- -- 86
2018-10-17 01:00:00 15.4 4 Este 10 Nordeste 0 -- -- 86
2018-10-17 00:00:00 15.8 6 Norte 8 Norte 0 -- -- 85
2018-10-16 23:00:00 17.1 3 Nordeste 9 Oeste 0 -- -- 84
2018-10-16 22:00:00 18.3 7 Oeste 9 Oeste 0 -- -- 79
2018-10-16 21:00:00 19.9 5 Oeste 7 Sudoeste 0 -- -- 67
2018-10-16 20:00:00 21.3 2 Sudoeste 3 Sudoeste 0 -- -- 68
2018-10-16 19:00:00 23.3 2 Nordeste 8 Nordeste 0 -- -- 54
2018-10-16 18:00:00 23.7 4 Norte 10 Norte 0 -- -- 53
2018-10-16 17:00:00 23.6 8 Nordeste 14 Norte 0 -- -- 55
2018-10-16 16:00:00 22.8 4 Nordeste 10 Oeste 0 -- -- 54
2018-10-16 15:00:00 21.5 4 Sur 13 Sudoeste 0 -- -- 64
2018-10-16 14:00:00 20.8 2 Sudoeste 7 Noroeste 0 -- -- 70
2018-10-16 13:00:00 20.3 3 Sudeste 9 Noroeste 0 -- -- 70
2018-10-16 12:00:00 18.7 4 Este 13 Este 0 -- -- 79
2018-10-16 11:00:00 17.1 6 Este 11 Nordeste 0 -- -- 87
2018-10-16 10:00:00 15.5 6 Este 15 Este 0 -- -- 91
2018-10-16 09:00:00 15 10 Este 15 Nordeste 0 -- -- 91
2018-10-16 08:00:00 15 5 Nordeste 9 Este 0 -- -- 91
2018-10-16 07:00:00 15.2 5 Este 9 Este 0 -- -- 91
2018-10-16 06:00:00 15.3 6 Este 10 Este 0 -- -- 91
2018-10-16 05:00:00 15.3 8 Este 13 Este 0 -- -- 92
2018-10-16 04:00:00 15.1 4 Este 9 Este 0 -- -- 92
2018-10-16 03:00:00 15.5 5 Este 11 Este 0 -- -- 92
2018-10-16 02:00:00 16.1 2 Nordeste 5 Nordeste 0.2 -- -- 92
2018-10-16 01:00:00 16.3 5 Nordeste 10 Norte 1.8 -- -- 92
2018-10-16 00:00:00 16.6 3 Noroeste 10 Oeste 0 -- -- 92
2018-10-15 23:00:00 16.7 7 Oeste 12 Sudoeste 0 -- -- 91
2018-10-15 22:00:00 16.8 0 Calma 8 Nordeste 0 -- -- 91
2018-10-15 21:00:00 16.9 6 Sudoeste 17 Sur 0 -- -- 91
2018-10-15 20:00:00 16.8 10 Sudoeste 19 Sur 0.2 -- -- 90
2018-10-15 19:00:00 16.3 8 Sudoeste 34 Sudoeste 8.6 -- -- 91
2018-10-15 18:00:00 16.6 16 Sudoeste 42 Sudoeste 2.4 -- -- 86
2018-10-15 17:00:00 18.5 25 Sudoeste 45 Sudoeste 0 -- -- 70
2018-10-15 16:00:00 19.8 25 Sudoeste 41 Sudoeste 0 -- -- 61
2018-10-15 15:00:00 18.9 23 Sudoeste 37 Sudoeste 0 -- -- 62
2018-10-15 14:00:00 19 15 Sudoeste 28 Sudoeste 0 -- -- 60
2018-10-15 13:00:00 16.6 12 Sur 16 Sur 0 -- -- 64
2018-10-15 12:00:00 14.7 0 Calma 8 Noroeste 0 -- -- 77
2018-10-15 11:00:00 14.3 3 Oeste 11 Oeste 0 -- -- 74
2018-10-15 10:00:00 13.4 0 Calma 4 Norte 0 -- -- 83
2018-10-15 09:00:00 11.1 0 Calma 6 Oeste 0 -- -- 88
2018-10-15 08:00:00 9.7 0 Calma 8 Oeste 0 -- -- 87
2018-10-15 07:00:00 10.3 6 Oeste 10 Sudoeste 0 -- -- 87
2018-10-15 06:00:00 10.9 4 Sudoeste 10 Sudoeste 0 -- -- 84
2018-10-15 05:00:00 11.2 3 Sur 5 Sur 0 -- -- 85
2018-10-15 04:00:00 12.2 3 Sudoeste 15 Sudoeste 0 -- -- 79
2018-10-15 03:00:00 12.6 11 Sudoeste 15 Sudoeste 0 -- -- 78
2018-10-15 02:00:00 13.3 12 Oeste 15 Oeste 0 -- -- 74
2018-10-15 01:00:00 13.3 6 Sudoeste 9 Sudoeste 0 -- -- 76
2018-10-15 00:00:00 13.5 3 Sur 10 Oeste 0 -- -- 78
2018-10-14 23:00:00 14.8 8 Oeste 12 Oeste 0 -- -- 67
2018-10-14 22:00:00 15.2 9 Oeste 12 Noroeste 0 -- -- 67
2018-10-14 21:00:00 16.5 8 Noroeste 17 Noroeste 0 -- -- 58
2018-10-14 20:00:00 17.7 9 Noroeste 21 Noroeste 0 -- -- 54
2018-10-14 19:00:00 20.3 13 Noroeste 33 Noroeste 0 -- -- 44
2018-10-14 18:00:00 21.7 18 Noroeste 28 Norte 0 -- -- 39
2018-10-14 17:00:00 21.5 12 Noroeste 30 Noroeste 0 -- -- 42
2018-10-14 16:00:00 21.5 14 Noroeste 32 Noroeste 0 -- -- 43
2018-10-14 15:00:00 21.3 19 Noroeste 39 Noroeste 0 -- -- 41
2018-10-14 14:00:00 20.2 17 Noroeste 35 Oeste 0 -- -- 46
2018-10-14 13:00:00 19.4 17 Noroeste 30 Noroeste 0 -- -- 55
2018-10-14 12:00:00 18.3 18 Noroeste 35 Noroeste 0 -- -- 57
2018-10-14 11:00:00 17.7 14 Noroeste 24 Noroeste 0 -- -- 69
2018-10-14 10:00:00 16.8 11 Oeste 18 Oeste 0 -- -- 77
2018-10-14 09:00:00 15.7 13 Oeste 27 Noroeste 0 -- -- 83
2018-10-14 08:00:00 17 17 Oeste 32 Oeste 0.2 -- -- 89
2018-10-14 07:00:00 17.6 17 Oeste 33 Oeste 5.6 -- -- 90
2018-10-14 06:00:00 18.5 14 Oeste 26 Oeste 0.2 -- -- 89
2018-10-14 05:00:00 18.1 6 Sudoeste 46 Noroeste 2.2 -- -- 87
2018-10-14 04:00:00 19.8 13 Sudoeste 28 Sur 0 -- -- 76
2018-10-14 03:00:00 18.9 8 Oeste 11 Sudoeste 0 -- -- 76
2018-10-14 02:00:00 19 6 Oeste 9 Noroeste 0 -- -- 74
2018-10-14 01:00:00 19.8 3 Oeste 6 Noroeste 0 -- -- 72
2018-10-14 00:00:00 20.6 2 Este 11 Oeste 0 -- -- 66
2018-10-13 23:00:00 22 9 Oeste 12 Sudoeste 0 -- -- 60
2018-10-13 22:00:00 24.2 8 Sudoeste 12 Sudoeste 0 -- -- 52
2018-10-13 21:00:00 25.9 9 Sudoeste 20 Sudoeste 0 -- -- 48
2018-10-13 20:00:00 27.7 10 Sudoeste 26 Sudoeste 0 -- -- 43
2018-10-13 19:00:00 29.9 15 Sudoeste 28 Oeste 0 -- -- 37
2018-10-13 18:00:00 31.2 15 Oeste 26 Oeste 0 -- -- 33
2018-10-13 17:00:00 31.5 15 Oeste 25 Oeste 0 -- -- 31
2018-10-13 16:00:00 31.8 8 Sudoeste 17 Sur 0 -- -- 28
2018-10-13 15:00:00 31 6 Este 15 Noroeste 0 -- -- 31
2018-10-13 14:00:00 29.7 8 Nordeste 17 Nordeste 0 -- -- 38
2018-10-13 13:00:00 27.1 12 Nordeste 21 Nordeste 0 -- -- 45
2018-10-13 12:00:00 25 13 Este 22 Este 0 -- -- 53
2018-10-13 11:00:00 22.2 17 Este 26 Este 0 -- -- 65
2018-10-13 10:00:00 19.8 13 Este 20 Este 0 -- -- 75
2018-10-13 09:00:00 16.8 9 Este 14 Este 0 -- -- 88
2018-10-13 08:00:00 16.4 10 Este 14 Este 0 -- -- 88
2018-10-13 07:00:00 16.8 9 Este 15 Este 0 -- -- 88
2018-10-13 06:00:00 16.3 8 Nordeste 12 Este 0 -- -- 89
2018-10-13 05:00:00 16.8 8 Nordeste 13 Nordeste 0 -- -- 89
2018-10-13 04:00:00 17.3 7 Nordeste 9 Este 0 -- -- 87
2018-10-13 03:00:00 18 7 Este 9 Norte 0 -- -- 85
2018-10-13 02:00:00 19.1 6 Norte 9 Norte 0 -- -- 83
2018-10-13 01:00:00 19.6 0 Calma 7 Noroeste 0 -- -- 81
2018-10-13 00:00:00 20.3 5 Norte 7 Norte 0 -- -- 81
2018-10-12 23:00:00 21 0 Calma 4 Noroeste 0 -- -- 77
2018-10-12 22:00:00 22 3 Noroeste 5 Noroeste 0 -- -- 74
2018-10-12 21:00:00 23.1 4 Noroeste 5 Norte 0 -- -- 71
2018-10-12 20:00:00 24.5 5 Noroeste 12 Norte 0 -- -- 67
2018-10-12 19:00:00 26.5 7 Noroeste 22 Noroeste 0 -- -- 59
2018-10-12 18:00:00 27.9 8 Noroeste 15 Oeste 0 -- -- 52
2018-10-12 17:00:00 28.9 8 Noroeste 14 Oeste 0 -- -- 49
2018-10-12 16:00:00 28.3 5 Norte 17 Norte 0 -- -- 52
2018-10-12 15:00:00 27.1 8 Oeste 17 Noroeste 0 -- -- 57
2018-10-12 14:00:00 26.4 5 Noroeste 12 Noroeste 0 -- -- 59
2018-10-12 13:00:00 24.3 7 Norte 12 Norte 0 -- -- 68
2018-10-12 12:00:00 24.2 4 Noroeste 8 Norte 0 -- -- 69
2018-10-12 11:00:00 23.6 4 Sudoeste 11 Oeste 0 -- -- 70
2018-10-12 10:00:00 22.3 5 Sudeste 10 Sudeste 0 -- -- 70
2018-10-12 09:00:00 19.7 4 Nordeste 6 Nordeste 0 -- -- 79
2018-10-12 08:00:00 19.8 5 Sudeste 8 Sudeste 0 -- -- 80
2018-10-12 07:00:00 20.6 2 Este 10 Sur 0 -- -- 83
2018-10-12 06:00:00 20.9 6 Sur 16 Sur 0 -- -- 79
2018-10-12 05:00:00 20.6 11 Sur 18 Sur 0 -- -- 81
2018-10-12 04:00:00 20.6 8 Sur 14 Sur 0 -- -- 82
2018-10-12 03:00:00 20.7 8 Sur 14 Sudoeste 0 -- -- 84
2018-10-12 02:00:00 20.8 8 Sur 18 Sur 0.2 -- -- 83
2018-10-12 01:00:00 21.6 13 Sur 18 Sur 0 -- -- 74
2018-10-12 00:00:00 21.9 7 Sudoeste 15 Sur 0 -- -- 73
2018-10-11 23:00:00 22.2 8 Sudoeste 33 Sudoeste 0 -- -- 71
2018-10-11 22:00:00 22.6 17 Sudoeste 29 Sudoeste 0 -- -- 68
2018-10-11 21:00:00 22.4 9 Sudoeste 24 Sudoeste 0 -- -- 71
2018-10-11 20:00:00 23.2 15 Sudoeste 37 Sudoeste 0 -- -- 64
2018-10-11 19:00:00 23.7 21 Sudoeste 37 Sudoeste 0 -- -- 61
2018-10-11 18:00:00 24.5 23 Sudoeste 38 Sudoeste 0 -- -- 57
2018-10-11 17:00:00 25.9 25 Sudoeste 40 Sudoeste 0 -- -- 49
2018-10-11 16:00:00 25.7 22 Sudoeste 38 Oeste 0 -- -- 50
2018-10-11 15:00:00 26.1 20 Oeste 35 Sudoeste 0 -- -- 48
2018-10-11 14:00:00 24.5 21 Sudoeste 36 Sudoeste 0 -- -- 58
2018-10-11 13:00:00 22.4 18 Sudoeste 27 Sudoeste 0 -- -- 68
2018-10-11 12:00:00 22.3 17 Sudoeste 32 Sudoeste 0 -- -- 74
2018-10-11 11:00:00 21.2 17 Sudoeste 33 Sur 0.2 -- -- 81
2018-10-11 10:00:00 21.1 12 Sur 23 Sur 0.2 -- -- 76
2018-10-11 09:00:00 20.6 7 Sudeste 9 Sudeste 0 -- -- 75
2018-10-11 08:00:00 20 9 Este 13 Este 0 -- -- 79
2018-10-11 07:00:00 20.5 7 Sudeste 13 Este 0 -- -- 73
2018-10-11 06:00:00 19.9 9 Este 13 Este 0 -- -- 82
2018-10-11 05:00:00 20 6 Este 10 Este 0 -- -- 77
2018-10-11 04:00:00 20.4 4 Sudeste 8 Sudeste 0 -- -- 80
2018-10-11 03:00:00 20.9 5 Sudeste 7 Este 0 -- -- 77
2018-10-11 02:00:00 20.9 2 Sur 6 Oeste 0 -- -- 78
2018-10-11 01:00:00 21 3 Sudoeste 10 Oeste 0 -- -- 77
2018-10-11 00:00:00 20.5 5 Sudoeste 11 Sudoeste 0 -- -- 78
2018-10-10 23:00:00 21.2 7 Sudoeste 15 Sudoeste 0 -- -- 73
2018-10-10 22:00:00 22 8 Sudoeste 15 Sudoeste 0 -- -- 69
2018-10-10 21:00:00 22.8 10 Sudoeste 20 Sudoeste 0 -- -- 66
2018-10-10 20:00:00 23.7 13 Sudoeste 29 Sudoeste 0 -- -- 61
2018-10-10 19:00:00 24.9 19 Sudoeste 29 Sudoeste 0 -- -- 52
2018-10-10 18:00:00 26.1 18 Sudoeste 33 Sudoeste 0 -- -- 50
2018-10-10 17:00:00 25.8 14 Sudoeste 27 Sudoeste 0 -- -- 52
2018-10-10 16:00:00 26.8 14 Sudoeste 26 Oeste 0 -- -- 47
2018-10-10 15:00:00 25.1 16 Sudoeste 28 Oeste 0 -- -- 50
2018-10-10 14:00:00 25.8 13 Sudoeste 26 Sudoeste 0 -- -- 49
2018-10-10 13:00:00 23.5 11 Oeste 25 Oeste 0 -- -- 59
2018-10-10 12:00:00 23.2 9 Sur 21 Sudeste 0 -- -- 62
2018-10-10 11:00:00 21.2 8 Este 14 Este 0 -- -- 70
2018-10-10 10:00:00 19.1 11 Este 17 Este 0 -- -- 75
2018-10-10 09:00:00 18.4 7 Este 11 Este 0 -- -- 80
2018-10-10 08:00:00 18.7 8 Sudeste 13 Sudeste 0 -- -- 79
2018-10-10 07:00:00 18.2 8 Sudeste 12 Este 0 -- -- 81
2018-10-10 06:00:00 17.9 6 Este 9 Este 0 -- -- 82
2018-10-10 05:00:00 18.1 2 Sudeste 5 Sur 0 -- -- 80
2018-10-10 04:00:00 19.6 5 Sur 8 Sudeste 0 -- -- 76
2018-10-10 03:00:00 19.2 5 Sudeste 9 Sudeste 0 -- -- 76
2018-10-10 02:00:00 18.9 3 Sudeste 8 Sudoeste 0 -- -- 76
2018-10-10 01:00:00 19.6 6 Sudoeste 12 Sudoeste 0 -- -- 75
2018-10-10 00:00:00 20.3 8 Sudoeste 18 Sudoeste 0 -- -- 72
2018-10-09 23:00:00 21.2 12 Sudoeste 20 Sudoeste 0 -- -- 68
2018-10-09 22:00:00 22.3 14 Sudoeste 26 Sudoeste 0 -- -- 62
2018-10-09 21:00:00 23.9 13 Sudoeste 24 Sudoeste 0 -- -- 47
2018-10-09 20:00:00 25.1 8 Oeste 15 Noroeste 0 -- -- 46
2018-10-09 19:00:00 26.9 7 Oeste 18 Oeste 0 -- -- 42
2018-10-09 18:00:00 27.4 7 Oeste 23 Oeste 0 -- -- 40
2018-10-09 17:00:00 27.2 13 Oeste 27 Oeste 0 -- -- 40
2018-10-09 16:00:00 27.2 14 Oeste 26 Oeste 0 -- -- 40
2018-10-09 15:00:00 26.4 12 Oeste 19 Noroeste 0 -- -- 41
2018-10-09 14:00:00 26.3 4 Este 14 Este 0 -- -- 41
2018-10-09 13:00:00 24.5 6 Este 14 Este 0 -- -- 44
2018-10-09 12:00:00 22.7 10 Este 20 Este 0 -- -- 43
2018-10-09 11:00:00 19.5 11 Este 17 Este 0 -- -- 50
2018-10-09 10:00:00 16 6 Este 10 Este 0 -- -- 74
2018-10-09 09:00:00 13 4 Nordeste 8 Nordeste 0 -- -- 87
2018-10-09 08:00:00 12.5 5 Nordeste 8 Nordeste 0 -- -- 86
2018-10-09 07:00:00 12.5 6 Nordeste 8 Nordeste 0 -- -- 86
2018-10-09 06:00:00 13.2 3 Este 10 Nordeste 0 -- -- 84
2018-10-09 05:00:00 13.6 6 Este 12 Nordeste 0 -- -- 84
2018-10-09 04:00:00 14.2 8 Nordeste 12 Nordeste 0 -- -- 84
2018-10-09 03:00:00 15.3 5 Sur 9 Sudeste 0 -- -- 81
2018-10-09 02:00:00 16.1 5 Sudeste 9 Sudoeste 0 -- -- 76
2018-10-09 01:00:00 17.5 6 Sur 9 Sudoeste 0 -- -- 73
2018-10-09 00:00:00 17.8 3 Sur 10 Sudoeste 0 -- -- 69
2018-10-08 23:00:00 19.5 6 Oeste 15 Sudoeste 0 -- -- 63
2018-10-08 22:00:00 21 13 Sudoeste 23 Sudoeste 0 -- -- 57
2018-10-08 21:00:00 22.5 15 Sudoeste 30 Sudoeste 0 -- -- 49
2018-10-08 20:00:00 24.5 16 Sudoeste 27 Sudoeste 0 -- -- 41
2018-10-08 19:00:00 26.7 17 Sudoeste 26 Sudoeste 0 -- -- 35
2018-10-08 18:00:00 28.1 6 Sur 21 Noroeste 0 -- -- 37
2018-10-08 17:00:00 28.3 12 Oeste 22 Oeste 0 -- -- 33
2018-10-08 16:00:00 27.5 13 Oeste 25 Sudoeste 0 -- -- 36
2018-10-08 15:00:00 26.9 6 Oeste 23 Sudoeste 0 -- -- 35
2018-10-08 14:00:00 26.3 8 Nordeste 16 Sudeste 0 -- -- 38
2018-10-08 13:00:00 24.3 8 Sudeste 22 Este 0 -- -- 41
2018-10-08 12:00:00 22.6 13 Este 30 Este 0 -- -- 37
2018-10-08 11:00:00 20.3 21 Este 30 Este 0 -- -- 37
2018-10-08 10:00:00 16.4 8 Nordeste 16 Este 0 -- -- 60
2018-10-08 09:00:00 12.8 7 Nordeste 9 Nordeste 0 -- -- 79
2018-10-08 08:00:00 12.7 0 Calma 10 Este 0 -- -- 76
2018-10-08 07:00:00 12.6 8 Nordeste 10 Nordeste 0 -- -- 76
2018-10-08 06:00:00 13.2 3 Este 11 Este 0 -- -- 78
2018-10-08 05:00:00 14 7 Este 8 Este 0 -- -- 79
2018-10-08 04:00:00 14.9 3 Este 8 Nordeste 0 -- -- 77
2018-10-08 03:00:00 16.4 6 Sudoeste 9 Sudoeste 0 -- -- 76
2018-10-08 02:00:00 16.4 5 Este 10 Nordeste 0 -- -- 66
2018-10-08 01:00:00 17.9 4 Este 9 Sudoeste 0 -- -- 67
2018-10-08 00:00:00 20.3 5 Oeste 18 Sudoeste 0 -- -- 59
2018-10-07 23:00:00 22 14 Oeste 21 Sudoeste 0 -- -- 51
2018-10-07 22:00:00 23.9 13 Oeste 24 Oeste 0 -- -- 40
2018-10-07 21:00:00 25.5 15 Sudoeste 28 Sudoeste 0 -- -- 34
2018-10-07 20:00:00 28.2 11 Oeste 26 Sudoeste 0 -- -- 22
2018-10-07 19:00:00 30.8 16 Oeste 36 Oeste 0 -- -- 21
2018-10-07 18:00:00 31.2 23 Sudoeste 35 Oeste 0 -- -- 20
2018-10-07 17:00:00 31.6 17 Sudoeste 31 Sudoeste 0 -- -- 24
2018-10-07 16:00:00 30.3 14 Sudoeste 28 Sudoeste 0 -- -- 28
2018-10-07 15:00:00 29.5 15 Oeste 26 Oeste 0 -- -- 31
2018-10-07 14:00:00 27.9 8 Sudoeste 16 Sudoeste 0 -- -- 40
2018-10-07 13:00:00 26.5 4 Noroeste 9 Norte 0 -- -- 36
2018-10-07 12:00:00 24.6 0 Calma 6 Noroeste 0 -- -- 56
2018-10-07 11:00:00 21.5 0 Calma 8 Norte 0 -- -- 73
2018-10-07 10:00:00 19 2 Sudoeste 5 Este 0 -- -- 84
2018-10-07 09:00:00 18.1 3 Norte 7 Norte 0 -- -- 78
2018-10-07 08:00:00 18.7 5 Norte 10 Sudoeste 0 -- -- 78
2018-10-07 07:00:00 18.9 0 Calma 5 Nordeste 0 -- -- 78
2018-10-07 06:00:00 18.3 3 Nordeste 5 Este 0 -- -- 74
2018-10-07 05:00:00 17.2 5 Norte 8 Norte 0 -- -- 80
2018-10-07 04:00:00 17.4 2 Sur 6 Sudeste 0 -- -- 73
2018-10-07 03:00:00 18.1 5 Norte 12 Sudoeste 0 -- -- 71
2018-10-07 02:00:00 20.3 6 Sudoeste 14 Sudoeste 0 -- -- 65
2018-10-07 01:00:00 21.4 10 Sudoeste 16 Sudoeste 0 -- -- 60
2018-10-07 00:00:00 22.3 9 Sudoeste 14 Sudoeste 0 -- -- 52
2018-10-06 23:00:00 22.4 4 Oeste 10 Sudoeste 0 -- -- 51
2018-10-06 22:00:00 24.1 5 Noroeste 17 Oeste 0 -- -- 46
2018-10-06 21:00:00 26.4 13 Sudoeste 21 Sudoeste 0 -- -- 42
2018-10-06 20:00:00 28.7 9 Sudoeste 22 Sudoeste 0 -- -- 28
2018-10-06 19:00:00 30.7 13 Sudoeste 25 Sudoeste 0 -- -- 25
2018-10-06 18:00:00 31.7 12 Sudoeste 21 Oeste 0 -- -- 22
2018-10-06 17:00:00 31.7 13 Sudoeste 21 Oeste 0 -- -- 22
2018-10-06 16:00:00 31.8 6 Sur 14 Sur 0 -- -- 22
2018-10-06 15:00:00 30.2 5 Sudeste 15 Este 0 -- -- 27
2018-10-06 14:00:00 28.5 10 Este 22 Este 0 -- -- 33
2018-10-06 13:00:00 26.8 11 Este 22 Este 0 -- -- 39
2018-10-06 12:00:00 24.6 15 Este 30 Nordeste 0 -- -- 46
2018-10-06 11:00:00 22.6 17 Este 26 Nordeste 0 -- -- 48
2018-10-06 10:00:00 18.3 8 Nordeste 13 Este 0 -- -- 58
2018-10-06 09:00:00 15.1 10 Este 14 Nordeste 0 -- -- 68
2018-10-06 08:00:00 14.2 0 Calma 10 Este 0 -- -- 70
2018-10-06 07:00:00 14.7 9 Nordeste 13 Nordeste 0 -- -- 70
2018-10-06 06:00:00 15.1 8 Este 12 Nordeste 0 -- -- 67
2018-10-06 05:00:00 15.2 7 Nordeste 10 Nordeste 0 -- -- 68
2018-10-06 04:00:00 16.5 5 Nordeste 14 Este 0 -- -- 64
2018-10-06 03:00:00 18.3 12 Este 17 Este 0 -- -- 55
2018-10-06 02:00:00 18.4 8 Este 12 Este 0 -- -- 59
2018-10-06 01:00:00 18.9 5 Sudeste 6 Este 0 -- -- 55
2018-10-06 00:00:00 20.5 5 Sur 15 Oeste 0 -- -- 48
2018-10-05 23:00:00 22.5 11 Oeste 14 Sur 0 -- -- 43
2018-10-05 22:00:00 25.5 11 Sur 18 Sudoeste 0 -- -- 32
2018-10-05 21:00:00 25.5 9 Sudeste 18 Sudeste 0 -- -- 33
2018-10-05 20:00:00 27.8 9 Este 14 Nordeste 0 -- -- 30
2018-10-05 19:00:00 31.2 9 Nordeste 19 Nordeste 0 -- -- 23
2018-10-05 18:00:00 32.6 8 Este 24 Nordeste 0 -- -- 21
2018-10-05 17:00:00 32.8 14 Este 30 Este 0 -- -- 21
2018-10-05 16:00:00 32.5 12 Nordeste 23 Este 0 -- -- 23
2018-10-05 15:00:00 31.6 12 Este 25 Este 0 -- -- 23
2018-10-05 14:00:00 29.8 18 Este 30 Este 0 -- -- 26
2018-10-05 13:00:00 27.7 17 Este 29 Nordeste 0 -- -- 32
2018-10-05 12:00:00 25.5 17 Este 27 Este 0 -- -- 34
2018-10-05 11:00:00 22.8 15 Este 24 Este 0 -- -- 40
2018-10-05 10:00:00 18.7 9 Este 15 Nordeste 0 -- -- 53
2018-10-05 09:00:00 15.3 8 Nordeste 15 Este 0 -- -- 63
2018-10-05 08:00:00 14.3 9 Este 13 Nordeste 0 -- -- 67
2018-10-05 07:00:00 14.4 8 Este 12 Este 0 -- -- 67
2018-10-05 06:00:00 14.8 8 Nordeste 13 Nordeste 0 -- -- 65
2018-10-05 05:00:00 15.3 9 Nordeste 11 Nordeste 0 -- -- 65
2018-10-05 04:00:00 16.5 5 Este 14 Este 0 -- -- 61
2018-10-05 03:00:00 16.9 10 Este 15 Este 0 -- -- 58
2018-10-05 02:00:00 17.8 5 Este 8 Nordeste 0 -- -- 56
2018-10-05 01:00:00 19.5 0 Calma 13 Sudoeste 0 -- -- 49
2018-10-05 00:00:00 22.4 9 Sudoeste 16 Sudoeste 0 -- -- 36
2018-10-04 23:00:00 23.7 6 Sudoeste 15 Sudoeste 0 -- -- 34
2018-10-04 22:00:00 25.5 12 Sur 17 Sudeste 0 -- -- 32
2018-10-04 21:00:00 24.5 14 Sudeste 18 Sudeste 0 -- -- 35
2018-10-04 20:00:00 28.9 8 Noroeste 11 Noroeste 0 -- -- 30
2018-10-04 19:00:00 32.1 9 Noroeste 13 Noroeste 0 -- -- 22
2018-10-04 18:00:00 33 5 Norte 12 Nordeste 0 -- -- 20
2018-10-04 17:00:00 32.9 6 Nordeste 14 Nordeste 0 -- -- 20
2018-10-04 16:00:00 32.6 4 Nordeste 17 Este 0 -- -- 23
2018-10-04 15:00:00 31 8 Este 17 Este 0 -- -- 25
2018-10-04 14:00:00 29.4 9 Este 19 Este 0 -- -- 28
2018-10-04 13:00:00 27.8 12 Este 20 Este 0 -- -- 33
2018-10-04 12:00:00 24.9 14 Este 23 Este 0 -- -- 40
2018-10-04 11:00:00 21.7 13 Este 19 Nordeste 0 -- -- 49
2018-10-04 10:00:00 18 9 Nordeste 15 Este 0 -- -- 61
2018-10-04 09:00:00 15.3 7 Este 12 Este 0 -- -- 70
2018-10-04 08:00:00 14.9 8 Nordeste 12 Nordeste 0 -- -- 70
2018-10-04 07:00:00 15.3 8 Nordeste 11 Nordeste 0 -- -- 68
2018-10-04 06:00:00 15.4 7 Nordeste 14 Nordeste 0 -- -- 68
2018-10-04 05:00:00 15.5 7 Nordeste 11 Nordeste 0 -- -- 69
2018-10-04 04:00:00 16 4 Norte 6 Norte 0 -- -- 77
2018-10-04 03:00:00 17.6 0 Calma 8 Oeste 0 -- -- 69
2018-10-04 02:00:00 19.1 3 Sur 6 Oeste 0 -- -- 64
2018-10-04 01:00:00 21 2 Nordeste 13 Sudoeste 0 -- -- 59
2018-10-04 00:00:00 22 10 Oeste 15 Sudoeste 0 -- -- 55
2018-10-03 23:00:00 21.2 7 Oeste 10 Sur 0 -- -- 48
2018-10-03 22:00:00 23.7 10 Sur 12 Sudeste 0 -- -- 34
2018-10-03 21:00:00 25.4 9 Sudeste 15 Sudeste 0 -- -- 36
2018-10-03 20:00:00 28.8 3 Nordeste 8 Nordeste 0 -- -- 29
2018-10-03 19:00:00 30.9 5 Nordeste 11 Nordeste 0 -- -- 26
2018-10-03 18:00:00 32 5 Norte 17 Este 0 -- -- 23
2018-10-03 17:00:00 31.7 6 Nordeste 18 Nordeste 0 -- -- 25
2018-10-03 16:00:00 31.4 10 Este 22 Este 0 -- -- 27
2018-10-03 15:00:00 30.2 15 Este 26 Este 0 -- -- 27
2018-10-03 14:00:00 28.7 14 Este 27 Este 0 -- -- 34
2018-10-03 13:00:00 27 14 Este 26 Este 0 -- -- 38
2018-10-03 12:00:00 24.9 17 Este 29 Este 0 -- -- 44
2018-10-03 11:00:00 22.3 19 Este 31 Este 0 -- -- 52
2018-10-03 10:00:00 19.1 13 Este 19 Este 0 -- -- 57
2018-10-03 09:00:00 14.7 9 Este 13 Nordeste 0 -- -- 64
2018-10-03 08:00:00 12.9 6 Nordeste 9 Nordeste 0 -- -- 67
2018-10-03 07:00:00 12.9 4 Nordeste 6 Nordeste 0 -- -- 65
2018-10-03 06:00:00 14.1 4 Este 15 Nordeste 0 -- -- 55
2018-10-03 05:00:00 15.2 9 Este 15 Este 0 -- -- 47
2018-10-03 04:00:00 15.2 4 Nordeste 8 Este 0 -- -- 58
2018-10-03 03:00:00 16.2 3 Nordeste 9 Este 0 -- -- 60
2018-10-03 02:00:00 17 3 Norte 7 Norte 0 -- -- 63
2018-10-03 01:00:00 18.7 4 Sudeste 22 Este 0 -- -- 54
2018-10-03 00:00:00 20.8 5 Oeste 16 Sudoeste 0 -- -- 57
2018-10-02 23:00:00 20.9 6 Sur 16 Oeste 0 -- -- 30
2018-10-02 22:00:00 22.1 11 Este 12 Este 0 -- -- 26
2018-10-02 21:00:00 25.8 7 Nordeste 10 Norte 0 -- -- 20
2018-10-02 20:00:00 30.4 4 Nordeste -- -- 0 -- -- 17
2018-10-02 19:00:00 33 4 Este 11 Sudeste 0 -- -- 15
2018-10-02 18:00:00 33.9 4 Este 9 Nordeste 0 -- -- 13
2018-10-02 17:00:00 33.8 5 Noroeste 14 Sudeste 0 -- -- 12
2018-10-02 16:00:00 33 5 Sur 18 Este 0 -- -- 13
2018-10-02 15:00:00 31.9 13 Sudeste 24 Este 0 -- -- 12
2018-10-02 14:00:00 30.3 15 Este 33 Este 0 -- -- 14
2018-10-02 13:00:00 28.2 23 Este 36 Este 0 -- -- 18
2018-10-02 12:00:00 26.6 23 Este 37 Este 0 -- -- 21
2018-10-02 11:00:00 23.5 21 Este 31 Este 0 -- -- 32
2018-10-02 10:00:00 19.2 11 Este 18 Este 0 -- -- 61
2018-10-02 09:00:00 16.5 6 Nordeste 10 Nordeste 0 -- -- 89
2018-10-02 08:00:00 16.6 6 Nordeste 9 Nordeste 0 -- -- 89
2018-10-02 07:00:00 17.2 6 Nordeste 11 Nordeste 0 -- -- 88
2018-10-02 06:00:00 18.2 5 Nordeste 8 Nordeste 0 -- -- 87
2018-10-02 05:00:00 19 4 Nordeste 7 Nordeste 0 -- -- 86
2018-10-02 04:00:00 19.6 7 Nordeste 12 Nordeste 0 -- -- 87
2018-10-02 03:00:00 19.6 8 Este 13 Este 0 -- -- 87
2018-10-02 02:00:00 20.5 4 Oeste 8 Oeste 0 -- -- 83
2018-10-02 01:00:00 21.4 3 Noroeste 10 Oeste 0 -- -- 80
2018-10-02 00:00:00 22.8 6 Sudoeste 21 Sudoeste 0 -- -- 77
2018-10-01 23:00:00 23.8 12 Sudoeste 22 Sudoeste 0 -- -- 70
2018-10-01 22:00:00 25.2 11 Sudoeste 19 Sur 0 -- -- 59
2018-10-01 21:00:00 27 13 Sudoeste 21 Sudoeste 0 -- -- 53
2018-10-01 20:00:00 29 10 Sudoeste 25 Sudoeste 0 -- -- 50
2018-10-01 19:00:00 31.3 10 Oeste 21 Sudoeste 0 -- -- 41
2018-10-01 18:00:00 30.9 16 Oeste 29 Oeste 0 -- -- 34
2018-10-01 17:00:00 33 6 Sudoeste 16 Sudoeste 0 -- -- 29
2018-10-01 16:00:00 32.4 10 Oeste 19 Oeste 0 -- -- 33
2018-10-01 15:00:00 31.1 10 Oeste 19 Sudoeste 0 -- -- 36
2018-10-01 14:00:00 30.2 6 Sudoeste 15 Oeste 0 -- -- 41
2018-10-01 13:00:00 28.1 3 Sudoeste 12 Este 0 -- -- 46
2018-10-01 12:00:00 26.2 6 Este 12 Este 0 -- -- 51
2018-10-01 11:00:00 23.9 3 Este 6 Este 0 -- -- 59
2018-10-01 10:00:00 20.3 0 Calma 6 Norte 0 -- -- 71
2018-10-01 09:00:00 17.6 2 Este 8 Nordeste 0 -- -- 83
2018-10-01 08:00:00 17.6 2 Nordeste 5 Nordeste 0 -- -- 81
2018-10-01 07:00:00 18.4 6 Norte 10 Sur 0 -- -- 81
2018-10-01 06:00:00 18.7 0 Calma 9 Sur 0 -- -- 79
2018-10-01 05:00:00 19.5 6 Sudoeste 10 Sudoeste 0 -- -- 77
2018-10-01 04:00:00 20.1 5 Sudoeste 10 Sudoeste 0 -- -- 69
2018-10-01 03:00:00 20.4 4 Sudoeste 9 Sudoeste 0 -- -- 67
2018-10-01 02:00:00 21 5 Sudoeste 14 Sudoeste 0 -- -- 64
2018-10-01 01:00:00 21.4 4 Oeste 18 Sudoeste 0 -- -- 63
2018-10-01 00:00:00 22.5 9 Sudoeste 14 Sudoeste 0 -- -- 59
2018-09-30 23:00:00 23.4 3 Noroeste 10 Sudoeste 0 -- -- 57
2018-09-30 22:00:00 24.2 6 Sudoeste 20 Oeste 0 -- -- 53
2018-09-30 21:00:00 25.1 9 Oeste 24 Oeste 0 -- -- 48
2018-09-30 20:00:00 27.5 20 Oeste 33 Oeste 0 -- -- 42
2018-09-30 19:00:00 30.3 11 Oeste 25 Oeste 0 -- -- 37
2018-09-30 18:00:00 31.3 16 Sudoeste 27 Oeste 0 -- -- 35
2018-09-30 17:00:00 32.2 10 Sudoeste 21 Oeste 0 -- -- 32
2018-09-30 16:00:00 32.2 6 Sur 19 Sudoeste 0 -- -- 32
2018-09-30 15:00:00 30.9 5 Sur 12 Sudeste 0 -- -- 35
2018-09-30 14:00:00 29.8 5 Sur 14 Oeste 0 -- -- 36
2018-09-30 13:00:00 27.2 6 Oeste 12 Oeste 0 -- -- 44
2018-09-30 12:00:00 24.7 4 Oeste 12 Noroeste 0 -- -- 60
2018-09-30 11:00:00 23.1 4 Noroeste 15 Noroeste 0 -- -- 70
2018-09-30 10:00:00 21.8 3 Nordeste 6 Nordeste 0 -- -- 74
2018-09-30 09:00:00 18.7 3 Nordeste 6 Nordeste 0 -- -- 83
2018-09-30 08:00:00 18.8 3 Nordeste 6 Este 0 -- -- 82
2018-09-30 07:00:00 18.8 4 Este 6 Nordeste 0 -- -- 82
2018-09-30 06:00:00 19.5 3 Sudeste 8 Este 0 -- -- 78
2018-09-30 05:00:00 19.9 5 Nordeste 5 Nordeste 0 -- -- 75
2018-09-30 04:00:00 20.1 5 Este 8 Este 0 -- -- 74
2018-09-30 03:00:00 20.7 5 Oeste 12 Oeste 0 -- -- 72
2018-09-30 02:00:00 22.9 9 Sudoeste 15 Sudoeste 0 -- -- 61
2018-09-30 01:00:00 23.5 7 Sudoeste 12 Sudoeste 0 -- -- 56
2018-09-30 00:00:00 23.9 7 Sudoeste 11 Sudoeste 0 -- -- 55
2018-09-29 23:00:00 24.9 11 Sudoeste 14 Sudoeste 0 -- -- 53
2018-09-29 22:00:00 25.6 8 Sudoeste 12 Sudoeste 0 -- -- 49
2018-09-29 21:00:00 27.1 8 Sudoeste 12 Sudoeste 0 -- -- 44
2018-09-29 20:00:00 29.5 9 Sudoeste 13 Oeste 0 -- -- 40
2018-09-29 19:00:00 31.1 8 Oeste 22 Oeste 0 -- -- 36
2018-09-29 18:00:00 32.2 7 Sudoeste 21 Oeste 0 -- -- 34
2018-09-29 17:00:00 32.2 5 Noroeste 12 Este 0 -- -- 38
2018-09-29 16:00:00 31.6 4 Este 14 Este 0 -- -- 39
2018-09-29 15:00:00 30.2 5 Este 17 Este 0 -- -- 43
2018-09-29 14:00:00 28.6 6 Este 18 Este 0 -- -- 47
2018-09-29 13:00:00 27.3 8 Sudeste 17 Este 0 -- -- 52
2018-09-29 12:00:00 25.1 10 Este 18 Este 0 -- -- 60
2018-09-29 11:00:00 23.1 11 Este 19 Este 0 -- -- 65
2018-09-29 10:00:00 21.2 11 Este 17 Nordeste 0 -- -- 69
2018-09-29 09:00:00 18.6 9 Este 13 Este 0 -- -- 79
2018-09-29 08:00:00 17.8 7 Este 13 Este 0 -- -- 81
2018-09-29 07:00:00 18.2 9 Este 16 Este 0 -- -- 79
2018-09-29 06:00:00 18.2 10 Este 13 Este 0 -- -- 78
2018-09-29 05:00:00 18.7 8 Este 11 Este 0 -- -- 75
2018-09-29 04:00:00 19.8 9 Este 11 Este 0 -- -- 72
2018-09-29 03:00:00 19.9 8 Este 9 Sudeste 0 -- -- 73
2018-09-29 02:00:00 21 5 Noroeste 11 Sudoeste 0 -- -- 69
2018-09-29 01:00:00 22.7 6 Sudoeste 11 Sudoeste 0 -- -- 61
2018-09-29 00:00:00 22.6 0 Calma 7 Nordeste 0 -- -- 63
2018-09-28 23:00:00 24.9 5 Sudeste 14 Sudeste 0 -- -- 54
2018-09-28 22:00:00 26 11 Sur 14 Sudeste 0 -- -- 49
2018-09-28 21:00:00 26.8 5 Sur 8 Sur 0 -- -- 48
2018-09-28 20:00:00 29.7 5 Sudeste 11 Este 0 -- -- 39
2018-09-28 19:00:00 31 8 Este 18 Este 0 -- -- 34
2018-09-28 18:00:00 31.4 12 Este 19 Sudeste 0 -- -- 33
2018-09-28 17:00:00 31.4 8 Este 22 Este 0 -- -- 36
2018-09-28 16:00:00 30.9 11 Este 28 Este 0 -- -- 39
2018-09-28 15:00:00 30.3 11 Este 25 Este 0 -- -- 44
2018-09-28 14:00:00 29.3 13 Este 25 Este 0 -- -- 46
2018-09-28 13:00:00 28.7 14 Este 28 Este 0 -- -- 48
2018-09-28 12:00:00 27.6 13 Este 24 Sudeste 0 -- -- 49
2018-09-28 11:00:00 24.8 13 Este 21 Este 0 -- -- 61
2018-09-28 10:00:00 22.2 15 Este 22 Este 0 -- -- 68
2018-09-28 09:00:00 19.8 11 Este 16 Este 0 -- -- 78
2018-09-28 08:00:00 18.7 8 Este 10 Nordeste 0 -- -- 79
2018-09-28 07:00:00 19.1 6 Este 12 Este 0 -- -- 74
2018-09-28 06:00:00 19.5 9 Este 12 Este 0 -- -- 72
2018-09-28 05:00:00 19.9 6 Nordeste 14 Este 0 -- -- 70
2018-09-28 04:00:00 20.7 8 Nordeste 10 Nordeste 0 -- -- 70
2018-09-28 03:00:00 22.5 7 Sur 12 Sur 0 -- -- 60
2018-09-28 02:00:00 23 9 Sur 10 Sur 0 -- -- 59
2018-09-28 01:00:00 22.8 5 Sur 11 Sur 0 -- -- 61
2018-09-28 00:00:00 23.4 6 Noroeste 8 Noroeste 0 -- -- 59
2018-09-27 23:00:00 24.6 4 Noroeste 17 Sur 0 -- -- 56
2018-09-27 22:00:00 26.7 11 Sur 21 Sur 0 -- -- 47
2018-09-27 21:00:00 27.7 10 Sur 18 Sur 0 -- -- 45
2018-09-27 20:00:00 30.2 7 Este 15 Este 0 -- -- 38
2018-09-27 19:00:00 31.7 10 Este 18 Sudeste 0 -- -- 34
2018-09-27 18:00:00 31.9 10 Este 21 Sudeste 0 -- -- 34
2018-09-27 17:00:00 31.9 12 Nordeste 25 Nordeste 0 -- -- 36
2018-09-27 16:00:00 31.3 8 Nordeste 23 Este 0 -- -- 38
2018-09-27 15:00:00 30.5 12 Este 22 Este 0 -- -- 41
2018-09-27 14:00:00 30.2 14 Este 26 Este 0 -- -- 43
2018-09-27 13:00:00 29.1 12 Este 27 Este 0 -- -- 47
2018-09-27 12:00:00 27.7 13 Nordeste 26 Este 0 -- -- 51
2018-09-27 11:00:00 26.1 18 Este 27 Este 0 -- -- 56
2018-09-27 10:00:00 23.8 16 Este 23 Este 0 -- -- 70
2018-09-27 09:00:00 21.4 11 Este 19 Este 0 -- -- 78
2018-09-27 08:00:00 20.4 8 Este 14 Nordeste 0 -- -- 81
2018-09-27 07:00:00 20.7 8 Este 20 Este 0 -- -- 79
2018-09-27 06:00:00 21 10 Este 19 Este 0 -- -- 77
2018-09-27 05:00:00 21.5 11 Este 21 Este 0 -- -- 75
2018-09-27 04:00:00 21.9 14 Este 22 Este 0 -- -- 73
2018-09-27 03:00:00 22.3 11 Este 18 Este 0 -- -- 71
2018-09-27 02:00:00 22.8 9 Nordeste 17 Nordeste 0 -- -- 68
2018-09-27 01:00:00 23.2 8 Nordeste 20 Este 0 -- -- 64
2018-09-27 00:00:00 24 13 Este 21 Este 0 -- -- 59
2018-09-26 23:00:00 25.3 10 Nordeste 19 Nordeste 0 -- -- 56
2018-09-26 22:00:00 26.8 13 Este 29 Este 0 -- -- 52
2018-09-26 21:00:00 27.2 25 Este 52 Este 0 -- -- 49
2018-09-26 20:00:00 30.4 21 Sudeste 31 Sudeste 0 -- -- 41
2018-09-26 19:00:00 32.2 17 Este 32 Sudeste 0 -- -- 36
2018-09-26 18:00:00 33.3 22 Sudeste 32 Este 0 -- -- 33
2018-09-26 17:00:00 33.5 21 Sudeste 36 Sudeste 0 -- -- 33
2018-09-26 16:00:00 33.5 21 Sudeste 35 Este 0 -- -- 34
2018-09-26 15:00:00 33.1 21 Sudeste 35 Este 0 -- -- 36
2018-09-26 14:00:00 32.6 23 Sudeste 36 Este 0 -- -- 36
2018-09-26 13:00:00 31.4 26 Sudeste 40 Sudeste 0 -- -- 39
2018-09-26 12:00:00 30 23 Este 36 Este 0 -- -- 43
2018-09-26 11:00:00 28.1 17 Este 26 Este 0 -- -- 50
2018-09-26 10:00:00 25.7 17 Este 24 Este 0 -- -- 63
2018-09-26 09:00:00 23.3 16 Este 24 Este 0 -- -- 71
2018-09-26 08:00:00 22.6 14 Este 23 Este 0 -- -- 73
2018-09-26 07:00:00 22 11 Este 18 Este 0 -- -- 71
2018-09-26 06:00:00 21.8 10 Este 14 Este 0 -- -- 70
2018-09-26 05:00:00 22.1 9 Este 15 Este 0 -- -- 68
2018-09-26 04:00:00 22.7 9 Este 16 Este 0 -- -- 63
2018-09-26 03:00:00 22.8 8 Este 12 Este 0 -- -- 62
2018-09-26 02:00:00 23.6 8 Este 9 Este 0 -- -- 64
2018-09-26 01:00:00 25.4 6 Sur 15 Sur 0 -- -- 56
2018-09-26 00:00:00 26.6 9 Sur 14 Sudoeste 0 -- -- 51
2018-09-25 23:00:00 27.7 8 Sudoeste 20 Sudoeste 0 -- -- 47
2018-09-25 22:00:00 29.1 12 Sudoeste 18 Sudoeste 0 -- -- 40
2018-09-25 21:00:00 30 4 Oeste 8 Oeste 0 -- -- 35
2018-09-25 20:00:00 32.7 6 Noroeste 10 Noroeste 0 -- -- 29
2018-09-25 19:00:00 35.5 9 Oeste 18 Oeste 0 -- -- 23
2018-09-25 18:00:00 36.5 7 Noroeste 23 Oeste 0 -- -- 20
2018-09-25 17:00:00 36.4 6 Noroeste 21 Sudoeste 0 -- -- 20
2018-09-25 16:00:00 36.3 9 Sudoeste 17 Sur 0 -- -- 19
2018-09-25 15:00:00 36 8 Sur 20 Sudeste 0 -- -- 20
2018-09-25 14:00:00 35 8 Sur 17 Sudeste 0 -- -- 21
2018-09-25 13:00:00 32.9 8 Nordeste 14 Nordeste 0 -- -- 30
2018-09-25 12:00:00 29.8 9 Este 21 Este 0 -- -- 36
2018-09-25 11:00:00 27.3 15 Este 23 Este 0 -- -- 38
2018-09-25 10:00:00 23.1 6 Nordeste 14 Nordeste 0 -- -- 54
2018-09-25 09:00:00 19.6 9 Nordeste 13 Nordeste 0 -- -- 65
2018-09-25 08:00:00 18.8 7 Nordeste 14 Este 0 -- -- 68
2018-09-25 07:00:00 19.4 9 Nordeste 13 Este 0 -- -- 66
2018-09-25 06:00:00 19.6 8 Este 10 Nordeste 0 -- -- 66
2018-09-25 05:00:00 20.3 6 Este 10 Este 0 -- -- 65
2018-09-25 04:00:00 21.6 5 Nordeste 9 Norte 0 -- -- 58
2018-09-25 03:00:00 23.4 2 Oeste 11 Sudoeste 0 -- -- 47
2018-09-25 02:00:00 25.3 5 Sudoeste 13 Sudoeste 0 -- -- 40
2018-09-25 01:00:00 25.6 8 Sudoeste 13 Sudoeste 0 -- -- 39
2018-09-25 00:00:00 27.1 9 Sudoeste 13 Sudoeste 0 -- -- 36
2018-09-24 23:00:00 28.4 13 Oeste 18 Sudoeste 0 -- -- 35
2018-09-24 22:00:00 29.1 9 Sudoeste 19 Sudoeste 0 -- -- 32
2018-09-24 21:00:00 30.1 9 Sur 12 Sur 0 -- -- 32
2018-09-24 20:00:00 34.3 6 Nordeste 11 Este 0 -- -- 29
2018-09-24 19:00:00 36.8 6 Este 15 Este 0 -- -- 23
2018-09-24 18:00:00 37.4 8 Nordeste 19 Este 0 -- -- 23
2018-09-24 17:00:00 37.6 9 Nordeste 21 Este 0 -- -- 22
2018-09-24 16:00:00 36.9 8 Nordeste 23 Nordeste 0 -- -- 23
2018-09-24 15:00:00 35.9 9 Este 21 Este 0 -- -- 24
2018-09-24 14:00:00 34.7 13 Este 21 Este 0 -- -- 24
2018-09-24 13:00:00 32.6 14 Este 22 Este 0 -- -- 30
2018-09-24 12:00:00 29.8 15 Este 23 Este 0 -- -- 35
2018-09-24 11:00:00 27 14 Este 21 Este 0 -- -- 40
2018-09-24 10:00:00 23 7 Nordeste 14 Nordeste 0 -- -- 53
2018-09-24 09:00:00 20 8 Este 14 Este 0 -- -- 63
2018-09-24 08:00:00 19.3 10 Este 14 Este 0 -- -- 64
2018-09-24 07:00:00 19.7 9 Este 13 Nordeste 0 -- -- 62
2018-09-24 06:00:00 19.4 7 Nordeste 10 Este 0 -- -- 64
2018-09-24 05:00:00 20 7 Este 10 Este 0 -- -- 62
2018-09-24 04:00:00 20.7 8 Nordeste 12 Nordeste 0 -- -- 60
2018-09-24 03:00:00 21.4 9 Nordeste 10 Nordeste 0 -- -- 60
2018-09-24 02:00:00 22.8 7 Nordeste 9 Nordeste 0 -- -- 55
2018-09-24 01:00:00 23.8 5 Sudeste 8 Este 0 -- -- 53
2018-09-24 00:00:00 24.9 6 Este 9 Este 0 -- -- 46
2018-09-23 23:00:00 26.1 6 Norte 11 Sudoeste 0 -- -- 40
2018-09-23 22:00:00 28.6 9 Sur 15 Sur 0 -- -- 32
2018-09-23 21:00:00 29.9 10 Sudeste 13 Sur 0 -- -- 34
2018-09-23 20:00:00 34.3 4 Sudeste 13 Sudeste 0 -- -- 31
2018-09-23 19:00:00 36.6 9 Este 18 Este 0 -- -- 21
2018-09-23 18:00:00 37.2 12 Este 25 Este 0 -- -- 20
2018-09-23 17:00:00 37.1 12 Nordeste 22 Este 0 -- -- 22
2018-09-23 16:00:00 36.5 12 Nordeste 24 Este 0 -- -- 25
2018-09-23 15:00:00 35.7 12 Este 22 Este 0 -- -- 27
2018-09-23 14:00:00 33.7 11 Este 22 Este 0 -- -- 28
2018-09-23 13:00:00 32.2 14 Este 23 Nordeste 0 -- -- 32
2018-09-23 12:00:00 29.7 14 Este 25 Este 0 -- -- 37
2018-09-23 11:00:00 26.6 14 Este 24 Este 0 -- -- 42
2018-09-23 10:00:00 23.5 16 Este 22 Este 0 -- -- 49
2018-09-23 09:00:00 20.1 9 Nordeste 15 Este 0 -- -- 61
2018-09-23 08:00:00 19.4 7 Nordeste 15 Este 0 -- -- 62
2018-09-23 07:00:00 19.5 9 Este 14 Este 0 -- -- 62
2018-09-23 06:00:00 20.4 9 Nordeste 14 Nordeste 0 -- -- 59
2018-09-23 05:00:00 20.6 7 Nordeste 12 Este 0 -- -- 63
2018-09-23 04:00:00 21 8 Nordeste 10 Nordeste 0 -- -- 63
2018-09-23 03:00:00 21.8 8 Nordeste 9 Nordeste 0 -- -- 61
2018-09-23 02:00:00 23 5 Nordeste 10 Este 0 -- -- 56
2018-09-23 01:00:00 23.9 3 Este 9 Sur 0 -- -- 51
2018-09-23 00:00:00 25.9 6 Sur 10 Sudoeste 0 -- -- 43
2018-09-22 23:00:00 28.4 6 Sudoeste 15 Sudoeste 0 -- -- 37
2018-09-22 22:00:00 28.3 8 Sudoeste 14 Sur 0 -- -- 35
2018-09-22 21:00:00 30.8 11 Sur 14 Sudoeste 0 -- -- 31
2018-09-22 20:00:00 34.3 6 Sur 12 Sur 0 -- -- 30
2018-09-22 19:00:00 37 6 Nordeste 14 Norte 0 -- -- 24
2018-09-22 18:00:00 37 8 Nordeste 16 Este 0 -- -- 24
2018-09-22 17:00:00 37.2 9 Este 21 Nordeste 0 -- -- 24
2018-09-22 16:00:00 36.6 9 Nordeste 20 Este 0 -- -- 25
2018-09-22 15:00:00 35.8 9 Nordeste 19 Este 0 -- -- 25
2018-09-22 14:00:00 34 10 Nordeste 21 Este 0 -- -- 33
2018-09-22 13:00:00 32.3 13 Este 19 Este 0 -- -- 36
2018-09-22 12:00:00 29.4 13 Este 26 Nordeste 0 -- -- 43
2018-09-22 11:00:00 26.3 16 Este 23 Este 0 -- -- 50
2018-09-22 10:00:00 23.3 9 Este 14 Este 0 -- -- 60
2018-09-22 09:00:00 19.9 6 Este 10 Este 0 -- -- 73
2018-09-22 08:00:00 19 7 Nordeste 12 Este 0 -- -- 76
2018-09-22 07:00:00 19.4 10 Nordeste 14 Nordeste 0 -- -- 72
2018-09-22 06:00:00 19.5 8 Nordeste 10 Nordeste 0 -- -- 72
2018-09-22 05:00:00 20.3 5 Nordeste 8 Nordeste 0 -- -- 72
2018-09-22 04:00:00 20.9 2 Nordeste 4 Norte 0 -- -- 69
2018-09-22 03:00:00 21.9 3 Sudoeste 9 Nordeste 0 -- -- 64
2018-09-22 02:00:00 23.1 3 Noroeste 7 Sudeste 0 -- -- 56
2018-09-22 01:00:00 23.7 4 Sudeste 7 Nordeste 0 -- -- 53
2018-09-22 00:00:00 24 2 Norte 5 Nordeste 0 -- -- 61
2018-09-21 23:00:00 25.2 3 Este 6 Nordeste 0 -- -- 55
2018-09-21 22:00:00 26.8 3 Norte 4 Norte 0 -- -- 55
2018-09-21 21:00:00 28.7 0 Calma 4 Oeste 0 -- -- 49
2018-09-21 20:00:00 31.9 5 Noroeste 11 Oeste 0 -- -- 33
2018-09-21 19:00:00 34.5 8 Oeste 14 Oeste 0 -- -- 27
2018-09-21 18:00:00 34.9 10 Oeste 18 Sudoeste 0 -- -- 24
2018-09-21 17:00:00 34.4 5 Sudoeste 14 Oeste 0 -- -- 28
2018-09-21 16:00:00 34 6 Norte 11 Nordeste 0 -- -- 30
2018-09-21 15:00:00 32.8 5 Nordeste 10 Sudeste 0 -- -- 36
2018-09-21 14:00:00 31 6 Este 14 Este 0 -- -- 45
2018-09-21 13:00:00 29.2 4 Norte 12 Este 0 -- -- 54
2018-09-21 12:00:00 27.6 5 Nordeste 13 Este 0 -- -- 61
2018-09-21 11:00:00 25.8 6 Este 13 Nordeste 0 -- -- 68
2018-09-21 10:00:00 23.4 9 Este 13 Este 0 -- -- 77
2018-09-21 09:00:00 20.4 4 Este 7 Este 0 -- -- 88
2018-09-21 08:00:00 19.7 5 Nordeste 9 Nordeste 0 -- -- 88
2018-09-21 07:00:00 20.3 6 Nordeste 9 Este 0 -- -- 85
2018-09-21 06:00:00 20.8 7 Sudeste 8 Este 0 -- -- 85
2018-09-21 05:00:00 21.8 0 Calma 4 Oeste 0 -- -- 80
2018-09-21 04:00:00 22.9 3 Sudoeste 14 Sudoeste 0 -- -- 75
2018-09-21 03:00:00 23.4 6 Sudoeste 12 Sudoeste 0 -- -- 73
2018-09-21 02:00:00 24 8 Sudoeste 16 Sudoeste 0 -- -- 71
2018-09-21 01:00:00 24.8 9 Sudoeste 17 Sudoeste 0 -- -- 68
2018-09-21 00:00:00 25.6 11 Oeste 16 Sudoeste 0 -- -- 64
2018-09-20 23:00:00 26.7 9 Sudoeste 21 Sudoeste 0 -- -- 58
2018-09-20 22:00:00 27.9 13 Sudoeste 21 Oeste 0 -- -- 52
2018-09-20 21:00:00 29.4 10 Sudoeste 15 Sudoeste 0 -- -- 39
2018-09-20 20:00:00 31.4 11 Oeste 22 Oeste 0 -- -- 39
2018-09-20 19:00:00 33.1 14 Oeste 23 Sudoeste 0 -- -- 35
2018-09-20 18:00:00 34.4 7 Oeste 25 Nordeste 0 -- -- 32
2018-09-20 17:00:00 34 8 Nordeste 14 Nordeste 0 -- -- 36
2018-09-20 16:00:00 33.7 6 Nordeste 14 Este 0 -- -- 40
2018-09-20 15:00:00 32.5 4 Noroeste 17 Nordeste 0 -- -- 45
2018-09-20 14:00:00 31.5 5 Nordeste 16 Nordeste 0 -- -- 47
2018-09-20 13:00:00 30 4 Nordeste 12 Este 0 -- -- 49
2018-09-20 12:00:00 28 5 Sudeste 13 Este 0 -- -- 56
2018-09-20 11:00:00 26.2 9 Este 17 Este 0 -- -- 61
2018-09-20 10:00:00 24 9 Nordeste 14 Este 0 -- -- 72
2018-09-20 09:00:00 21.5 5 Este 14 Este 0 -- -- 84
2018-09-20 08:00:00 20.8 9 Este 14 Este 0 -- -- 86
2018-09-20 07:00:00 21.2 8 Este 11 Este 0 -- -- 85
2018-09-20 06:00:00 21.4 4 Este 9 Este 0 -- -- 85
2018-09-20 05:00:00 21.7 6 Este 8 Este 0 -- -- 83
2018-09-20 04:00:00 22.4 2 Este 6 Este 0 -- -- 80
2018-09-20 03:00:00 22.8 2 Oeste 6 Sudoeste 0 -- -- 78
2018-09-20 02:00:00 23.7 5 Oeste 14 Sudoeste 0 -- -- 74
2018-09-20 01:00:00 24.9 10 Sudoeste 24 Sudoeste 0 -- -- 67
2018-09-20 00:00:00 26.6 11 Sudoeste 21 Sudoeste 0 -- -- 59